sensor_id;sensor_type;location;lat;lon;timestamp;pressure;altitude;pressure_sealevel;temperature;humidity
60319;BME280;46163;52.306;5.634;2023-04-15T00:00:56;100793.97;;;16.69;53.83
60319;BME280;46163;52.306;5.634;2023-04-15T00:03:22;100796.03;;;16.67;53.64
60319;BME280;46163;52.306;5.634;2023-04-15T00:05:48;100794.41;;;16.66;53.75
60319;BME280;46163;52.306;5.634;2023-04-15T00:08:14;100794.63;;;16.64;53.72
60319;BME280;46163;52.306;5.634;2023-04-15T00:10:39;100790.31;;;16.63;54.17
60319;BME280;46163;52.306;5.634;2023-04-15T00:13:07;100790.81;;;16.60;53.69
60319;BME280;46163;52.306;5.634;2023-04-15T00:15:32;100792.09;;;16.58;53.74
60319;BME280;46163;52.306;5.634;2023-04-15T00:18:00;100789.41;;;16.58;53.68
60319;BME280;46163;52.306;5.634;2023-04-15T00:20:26;100780.22;;;16.54;53.69
60319;BME280;46163;52.306;5.634;2023-04-15T00:22:54;100786.41;;;16.54;53.75
60319;BME280;46163;52.306;5.634;2023-04-15T00:25:19;100792.59;;;16.55;53.57
60319;BME280;46163;52.306;5.634;2023-04-15T00:27:45;100784.44;;;16.50;53.72
60319;BME280;46163;52.306;5.634;2023-04-15T00:30:10;100791.22;;;16.52;53.58
60319;BME280;46163;52.306;5.634;2023-04-15T00:32:38;100787.94;;;16.50;53.72
60319;BME280;46163;52.306;5.634;2023-04-15T00:35:04;100789.78;;;16.50;53.60
60319;BME280;46163;52.306;5.634;2023-04-15T00:37:29;100786.78;;;16.46;53.83
60319;BME280;46163;52.306;5.634;2023-04-15T00:39:55;100790.53;;;16.45;53.75
60319;BME280;46163;52.306;5.634;2023-04-15T00:42:20;100781.09;;;16.43;53.56
60319;BME280;46163;52.306;5.634;2023-04-15T00:44:46;100791.34;;;16.46;53.51
60319;BME280;46163;52.306;5.634;2023-04-15T00:47:12;100792.88;;;16.42;53.53
60319;BME280;46163;52.306;5.634;2023-04-15T00:49:38;100795.56;;;16.42;53.71
60319;BME280;46163;52.306;5.634;2023-04-15T00:52:03;100788.72;;;16.34;53.79
60319;BME280;46163;52.306;5.634;2023-04-15T00:54:29;100793.34;;;16.38;53.50
60319;BME280;46163;52.306;5.634;2023-04-15T00:56:54;100791.97;;;16.36;53.54
60319;BME280;46163;52.306;5.634;2023-04-15T00:59:20;100791.16;;;16.35;53.71
60319;BME280;46163;52.306;5.634;2023-04-15T01:01:46;100797.59;;;16.34;53.70
60319;BME280;46163;52.306;5.634;2023-04-15T01:04:11;100796.53;;;16.35;53.52
60319;BME280;46163;52.306;5.634;2023-04-15T01:06:37;100794.09;;;16.34;53.52
60319;BME280;46163;52.306;5.634;2023-04-15T01:09:03;100793.50;;;16.32;53.55
60319;BME280;46163;52.306;5.634;2023-04-15T01:11:31;100801.22;;;16.28;53.63
60319;BME280;46163;52.306;5.634;2023-04-15T01:13:58;100804.47;;;16.30;53.60
60319;BME280;46163;52.306;5.634;2023-04-15T01:16:24;100809.16;;;16.23;53.72
60319;BME280;46163;52.306;5.634;2023-04-15T01:18:51;100805.66;;;16.23;53.60
60319;BME280;46163;52.306;5.634;2023-04-15T01:21:17;100805.22;;;16.26;53.58
60319;BME280;46163;52.306;5.634;2023-04-15T01:23:45;100811.03;;;16.23;53.58
60319;BME280;46163;52.306;5.634;2023-04-15T01:26:11;100809.97;;;16.24;53.58
60319;BME280;46163;52.306;5.634;2023-04-15T01:28:37;100805.91;;;16.21;53.68
60319;BME280;46163;52.306;5.634;2023-04-15T01:31:11;100813.16;;;16.21;53.73
60319;BME280;46163;52.306;5.634;2023-04-15T01:33:41;100805.34;;;16.19;53.49
60319;BME280;46163;52.306;5.634;2023-04-15T01:36:08;100799.41;;;16.17;53.67
60319;BME280;46163;52.306;5.634;2023-04-15T01:38:35;100800.91;;;16.13;53.65
60319;BME280;46163;52.306;5.634;2023-04-15T01:41:01;100810.34;;;16.16;53.62
60319;BME280;46163;52.306;5.634;2023-04-15T01:43:29;100807.91;;;16.14;53.55
60319;BME280;46163;52.306;5.634;2023-04-15T01:45:54;100804.09;;;16.10;53.56
60319;BME280;46163;52.306;5.634;2023-04-15T01:48:21;100806.53;;;16.11;53.62
60319;BME280;46163;52.306;5.634;2023-04-15T01:50:47;100807.00;;;16.08;53.76
60319;BME280;46163;52.306;5.634;2023-04-15T01:53:13;100810.75;;;16.07;53.67
60319;BME280;46163;52.306;5.634;2023-04-15T01:55:41;100816.94;;;16.08;53.58
60319;BME280;46163;52.306;5.634;2023-04-15T01:58:06;100826.88;;;16.07;53.55
60319;BME280;46163;52.306;5.634;2023-04-15T02:00:32;100818.44;;;16.04;53.53
60319;BME280;46163;52.306;5.634;2023-04-15T02:02:57;100810.53;;;15.97;53.82
60319;BME280;46163;52.306;5.634;2023-04-15T02:05:23;100821.13;;;16.04;53.58
60319;BME280;46163;52.306;5.634;2023-04-15T02:07:49;100818.94;;;16.01;53.60
60319;BME280;46163;52.306;5.634;2023-04-15T02:10:15;100827.00;;;16.01;53.45
60319;BME280;46163;52.306;5.634;2023-04-15T02:12:41;100825.34;;;16.00;53.58
60319;BME280;46163;52.306;5.634;2023-04-15T02:15:07;100830.13;;;15.98;53.67
60319;BME280;46163;52.306;5.634;2023-04-15T02:17:35;100835.72;;;15.96;53.45
60319;BME280;46163;52.306;5.634;2023-04-15T02:20:02;100832.22;;;15.96;53.54
60319;BME280;46163;52.306;5.634;2023-04-15T02:22:30;100831.66;;;15.94;53.60
60319;BME280;46163;52.306;5.634;2023-04-15T02:24:56;100832.16;;;15.91;53.55
60319;BME280;46163;52.306;5.634;2023-04-15T02:27:21;100829.47;;;15.91;53.53
60319;BME280;46163;52.306;5.634;2023-04-15T02:29:46;100834.84;;;15.91;53.44
60319;BME280;46163;52.306;5.634;2023-04-15T02:32:12;100838.53;;;15.90;53.66
60319;BME280;46163;52.306;5.634;2023-04-15T02:34:39;100839.84;;;15.87;53.56
60319;BME280;46163;52.306;5.634;2023-04-15T02:37:07;100850.56;;;15.87;53.70
60319;BME280;46163;52.306;5.634;2023-04-15T02:39:33;100847.31;;;15.85;53.51
60319;BME280;46163;52.306;5.634;2023-04-15T02:41:58;100837.88;;;15.82;53.61
60319;BME280;46163;52.306;5.634;2023-04-15T02:44:25;100845.09;;;15.82;53.51
60319;BME280;46163;52.306;5.634;2023-04-15T02:46:52;100847.78;;;15.82;53.54
60319;BME280;46163;52.306;5.634;2023-04-15T02:49:22;100851.75;;;15.79;53.60
60319;BME280;46163;52.306;5.634;2023-04-15T02:51:47;100852.78;;;15.78;53.59
60319;BME280;46163;52.306;5.634;2023-04-15T02:54:21;100857.34;;;15.78;53.67
60319;BME280;46163;52.306;5.634;2023-04-15T02:56:50;100856.19;;;15.74;53.69
60319;BME280;46163;52.306;5.634;2023-04-15T02:59:20;100862.38;;;15.74;53.46
60319;BME280;46163;52.306;5.634;2023-04-15T03:01:45;100867.75;;;15.74;53.52
60319;BME280;46163;52.306;5.634;2023-04-15T03:04:11;100870.66;;;15.73;53.70
60319;BME280;46163;52.306;5.634;2023-04-15T03:06:38;100856.31;;;15.67;53.47
60319;BME280;46163;52.306;5.634;2023-04-15T03:09:03;100858.75;;;15.69;53.66
60319;BME280;46163;52.306;5.634;2023-04-15T03:11:29;100860.03;;;15.66;53.52
60319;BME280;46163;52.306;5.634;2023-04-15T03:13:56;100868.66;;;15.68;53.47
60319;BME280;46163;52.306;5.634;2023-04-15T03:16:21;100866.47;;;15.65;53.53
60319;BME280;46163;52.306;5.634;2023-04-15T03:18:46;100862.72;;;15.66;53.58
60319;BME280;46163;52.306;5.634;2023-04-15T03:21:12;100864.84;;;15.64;53.47
60319;BME280;46163;52.306;5.634;2023-04-15T03:23:37;100860.72;;;15.62;53.48
60319;BME280;46163;52.306;5.634;2023-04-15T03:26:03;100867.97;;;15.61;53.68
60319;BME280;46163;52.306;5.634;2023-04-15T03:28:30;100860.94;;;15.60;53.41
60319;BME280;46163;52.306;5.634;2023-04-15T03:30:57;100862.81;;;15.48;53.22
60319;BME280;46163;52.306;5.634;2023-04-15T03:33:22;100867.22;;;15.54;53.64
60319;BME280;46163;52.306;5.634;2023-04-15T03:35:49;100875.41;;;15.59;53.51
60319;BME280;46163;52.306;5.634;2023-04-15T03:38:16;100872.13;;;15.57;53.77
60319;BME280;46163;52.306;5.634;2023-04-15T03:40:42;100879.59;;;15.55;53.46
60319;BME280;46163;52.306;5.634;2023-04-15T03:43:07;100871.78;;;15.53;53.58
60319;BME280;46163;52.306;5.634;2023-04-15T03:45:33;100884.97;;;15.55;53.42
60319;BME280;46163;52.306;5.634;2023-04-15T03:47:58;100882.50;;;15.53;53.62
60319;BME280;46163;52.306;5.634;2023-04-15T03:50:24;100883.78;;;15.51;53.80
60319;BME280;46163;52.306;5.634;2023-04-15T03:52:49;100887.53;;;15.50;53.73
60319;BME280;46163;52.306;5.634;2023-04-15T03:55:15;100885.06;;;15.48;53.85
60319;BME280;46163;52.306;5.634;2023-04-15T03:57:40;100897.19;;;15.51;53.71
60319;BME280;46163;52.306;5.634;2023-04-15T04:00:07;100890.78;;;15.52;53.65
60319;BME280;46163;52.306;5.634;2023-04-15T04:02:36;100894.41;;;15.58;53.71
60319;BME280;46163;52.306;5.634;2023-04-15T04:05:01;100905.06;;;15.64;53.47
60319;BME280;46163;52.306;5.634;2023-04-15T04:07:27;100909.03;;;15.73;53.29
60319;BME280;46163;52.306;5.634;2023-04-15T04:09:53;100897.13;;;15.69;53.16
60319;BME280;46163;52.306;5.634;2023-04-15T04:12:18;100907.16;;;15.86;53.15
60319;BME280;46163;52.306;5.634;2023-04-15T04:14:44;100923.50;;;15.96;52.85
60319;BME280;46163;52.306;5.634;2023-04-15T04:17:09;100910.44;;;15.99;52.80
60319;BME280;46163;52.306;5.634;2023-04-15T04:19:35;100910.09;;;16.07;52.53
60319;BME280;46163;52.306;5.634;2023-04-15T04:22:00;100915.91;;;16.16;52.37
60319;BME280;46163;52.306;5.634;2023-04-15T04:24:26;100917.06;;;16.20;52.34
60319;BME280;46163;52.306;5.634;2023-04-15T04:26:52;100921.75;;;16.25;52.16
60319;BME280;46163;52.306;5.634;2023-04-15T04:29:17;100931.88;;;16.34;51.91
60319;BME280;46163;52.306;5.634;2023-04-15T04:31:43;100932.53;;;16.42;51.74
60319;BME280;46163;52.306;5.634;2023-04-15T04:34:08;100933.47;;;16.47;51.66
60319;BME280;46163;52.306;5.634;2023-04-15T04:36:34;100931.38;;;16.49;51.39
60319;BME280;46163;52.306;5.634;2023-04-15T04:39:00;100945.25;;;16.58;51.34
60319;BME280;46163;52.306;5.634;2023-04-15T04:41:26;100933.78;;;16.62;51.26
60319;BME280;46163;52.306;5.634;2023-04-15T04:43:51;100947.94;;;16.70;51.10
60319;BME280;46163;52.306;5.634;2023-04-15T04:46:17;100947.94;;;16.70;50.99
60319;BME280;46163;52.306;5.634;2023-04-15T04:48:42;100953.66;;;16.73;51.02
60319;BME280;46163;52.306;5.634;2023-04-15T04:51:10;100956.44;;;16.78;50.75
60319;BME280;46163;52.306;5.634;2023-04-15T04:53:36;100956.91;;;16.75;51.08
60319;BME280;46163;52.306;5.634;2023-04-15T04:56:02;100966.38;;;16.78;50.78
60319;BME280;46163;52.306;5.634;2023-04-15T04:58:28;100960.66;;;16.74;50.71
60319;BME280;46163;52.306;5.634;2023-04-15T05:00:53;100968.72;;;16.74;50.58
60319;BME280;46163;52.306;5.634;2023-04-15T05:03:20;100979.59;;;16.79;50.67
60319;BME280;46163;52.306;5.634;2023-04-15T05:05:46;100979.00;;;16.77;50.77
60319;BME280;46163;52.306;5.634;2023-04-15T05:08:13;100976.31;;;16.77;50.45
60319;BME280;46163;52.306;5.634;2023-04-15T05:10:39;100983.91;;;16.80;50.64
60319;BME280;46163;52.306;5.634;2023-04-15T05:13:04;100982.28;;;16.79;50.71
60319;BME280;46163;52.306;5.634;2023-04-15T05:15:39;100985.53;;;16.81;50.64
60319;BME280;46163;52.306;5.634;2023-04-15T05:18:05;100988.22;;;16.81;50.57
60319;BME280;46163;52.306;5.634;2023-04-15T05:20:31;101003.66;;;16.86;50.53
60319;BME280;46163;52.306;5.634;2023-04-15T05:22:56;101007.72;;;16.88;50.23
60319;BME280;46163;52.306;5.634;2023-04-15T05:25:24;101005.59;;;16.90;50.52
60319;BME280;46163;52.306;5.634;2023-04-15T05:31:12;101012.72;;;16.97;50.24
60319;BME280;46163;52.306;5.634;2023-04-15T05:33:38;101020.53;;;16.98;50.15
60319;BME280;46163;52.306;5.634;2023-04-15T05:36:05;101023.34;;;17.03;50.10
60319;BME280;46163;52.306;5.634;2023-04-15T05:38:30;101018.53;;;17.05;50.13
60319;BME280;46163;52.306;5.634;2023-04-15T05:40:56;101028.81;;;17.08;50.18
60319;BME280;46163;52.306;5.634;2023-04-15T05:43:22;101037.22;;;17.12;50.04
60319;BME280;46163;52.306;5.634;2023-04-15T05:45:47;101036.19;;;17.13;49.81
60319;BME280;46163;52.306;5.634;2023-04-15T05:48:13;101043.50;;;17.17;49.71
60319;BME280;46163;52.306;5.634;2023-04-15T05:50:41;101045.13;;;17.18;49.81
60319;BME280;46163;52.306;5.634;2023-04-15T05:53:07;101050.88;;;17.22;49.69
60319;BME280;46163;52.306;5.634;2023-04-15T05:55:33;101044.44;;;17.23;49.59
60319;BME280;46163;52.306;5.634;2023-04-15T05:57:58;101052.59;;;17.28;49.77
60319;BME280;46163;52.306;5.634;2023-04-15T06:00:24;101051.78;;;17.28;49.77
60319;BME280;46163;52.306;5.634;2023-04-15T06:02:50;101054.81;;;17.31;49.56
60319;BME280;46163;52.306;5.634;2023-04-15T06:05:15;101053.41;;;17.29;49.50
60319;BME280;46163;52.306;5.634;2023-04-15T06:07:41;101065.91;;;17.35;49.42
60319;BME280;46163;52.306;5.634;2023-04-15T06:10:08;101064.59;;;17.37;49.40
60319;BME280;46163;52.306;5.634;2023-04-15T06:12:34;101072.22;;;17.40;49.23
60319;BME280;46163;52.306;5.634;2023-04-15T06:14:59;101077.59;;;17.40;49.57
60319;BME280;46163;52.306;5.634;2023-04-15T06:17:25;101074.09;;;17.40;49.34
60319;BME280;46163;52.306;5.634;2023-04-15T06:19:50;101083.78;;;17.41;49.27
60319;BME280;46163;52.306;5.634;2023-04-15T06:22:23;101085.16;;;17.43;49.43
60319;BME280;46163;52.306;5.634;2023-04-15T06:24:49;101091.38;;;17.44;49.56
60319;BME280;46163;52.306;5.634;2023-04-15T06:27:19;101082.72;;;17.42;49.33
60319;BME280;46163;52.306;5.634;2023-04-15T06:29:46;101084.72;;;17.46;49.26
60319;BME280;46163;52.306;5.634;2023-04-15T06:32:11;101100.13;;;17.51;49.50
60319;BME280;46163;52.306;5.634;2023-04-15T06:34:39;101103.38;;;17.53;49.44
60319;BME280;46163;52.306;5.634;2023-04-15T06:37:05;101101.41;;;17.48;49.32
60319;BME280;46163;52.306;5.634;2023-04-15T06:39:30;101104.69;;;17.50;49.22
60319;BME280;46163;52.306;5.634;2023-04-15T06:41:56;101111.69;;;17.51;49.27
60319;BME280;46163;52.306;5.634;2023-04-15T06:44:22;101116.59;;;17.55;49.50
60319;BME280;46163;52.306;5.634;2023-04-15T06:46:47;101123.63;;;17.56;49.59
60319;BME280;46163;52.306;5.634;2023-04-15T06:49:13;101123.38;;;17.57;49.72
60319;BME280;46163;52.306;5.634;2023-04-15T06:51:38;101126.06;;;17.57;49.50
60319;BME280;46163;52.306;5.634;2023-04-15T06:54:04;101127.47;;;17.60;49.83
60319;BME280;46163;52.306;5.634;2023-04-15T06:56:33;101134.47;;;17.61;49.74
60319;BME280;46163;52.306;5.634;2023-04-15T06:58:59;101135.28;;;17.61;49.96
60319;BME280;46163;52.306;5.634;2023-04-15T07:01:25;101139.41;;;17.64;49.79
60319;BME280;46163;52.306;5.634;2023-04-15T07:03:50;101131.78;;;17.61;49.49
60319;BME280;46163;52.306;5.634;2023-04-15T07:06:16;101141.84;;;17.65;49.77
60319;BME280;46163;52.306;5.634;2023-04-15T07:08:42;101140.69;;;17.61;49.88
60319;BME280;46163;52.306;5.634;2023-04-15T07:11:07;101156.69;;;17.68;49.94
60319;BME280;46163;52.306;5.634;2023-04-15T07:13:33;101168.06;;;17.70;49.88
60319;BME280;46163;52.306;5.634;2023-04-15T07:15:59;101161.81;;;17.69;49.67
60319;BME280;46163;52.306;5.634;2023-04-15T07:18:26;101171.22;;;17.67;49.50
60319;BME280;46163;52.306;5.634;2023-04-15T07:20:52;101164.75;;;17.68;49.72
60319;BME280;46163;52.306;5.634;2023-04-15T07:23:17;101168.75;;;17.65;49.84
60319;BME280;46163;52.306;5.634;2023-04-15T07:25:45;101184.22;;;17.70;49.71
60319;BME280;46163;52.306;5.634;2023-04-15T07:28:11;101178.22;;;17.68;49.44
60319;BME280;46163;52.306;5.634;2023-04-15T07:30:37;101196.00;;;17.69;49.52
60319;BME280;46163;52.306;5.634;2023-04-15T07:33:02;101193.81;;;17.66;49.61
60319;BME280;46163;52.306;5.634;2023-04-15T07:35:30;101193.22;;;17.64;49.46
60319;BME280;46163;52.306;5.634;2023-04-15T07:37:55;101198.59;;;17.64;49.58
60319;BME280;46163;52.306;5.634;2023-04-15T07:40:21;101199.63;;;17.63;49.42
60319;BME280;46163;52.306;5.634;2023-04-15T07:42:47;101189.38;;;17.60;49.26
60319;BME280;46163;52.306;5.634;2023-04-15T07:45:13;101207.50;;;17.64;49.57
60319;BME280;46163;52.306;5.634;2023-04-15T07:47:39;101199.06;;;17.61;49.55
60319;BME280;46163;52.306;5.634;2023-04-15T07:50:06;101205.03;;;17.63;49.60
60319;BME280;46163;52.306;5.634;2023-04-15T07:52:33;101209.38;;;17.64;49.51
60319;BME280;46163;52.306;5.634;2023-04-15T07:55:05;101214.97;;;17.62;49.56
60319;BME280;46163;52.306;5.634;2023-04-15T07:57:31;101213.47;;;17.66;49.63
60319;BME280;46163;52.306;5.634;2023-04-15T07:59:56;101220.72;;;17.66;49.46
60319;BME280;46163;52.306;5.634;2023-04-15T08:02:22;101225.03;;;17.67;49.31
60319;BME280;46163;52.306;5.634;2023-04-15T08:04:47;101225.63;;;17.69;49.47
60319;BME280;46163;52.306;5.634;2023-04-15T08:07:12;101223.97;;;17.68;49.09
60319;BME280;46163;52.306;5.634;2023-04-15T08:09:38;101228.09;;;17.70;49.77
60319;BME280;46163;52.306;5.634;2023-04-15T08:12:03;101229.72;;;17.71;49.86
60319;BME280;46163;52.306;5.634;2023-04-15T08:14:29;101234.06;;;17.72;49.86
60319;BME280;46163;52.306;5.634;2023-04-15T08:16:55;101227.63;;;17.73;49.68
60319;BME280;46163;52.306;5.634;2023-04-15T08:19:20;101227.03;;;17.71;49.62
60319;BME280;46163;52.306;5.634;2023-04-15T08:21:46;101230.66;;;17.77;49.60
60319;BME280;46163;52.306;5.634;2023-04-15T08:24:11;101235.22;;;17.76;49.93
60319;BME280;46163;52.306;5.634;2023-04-15T08:26:37;101233.34;;;17.77;49.96
60319;BME280;46163;52.306;5.634;2023-04-15T08:29:02;101232.28;;;17.78;50.04
60319;BME280;46163;52.306;5.634;2023-04-15T08:31:28;101237.44;;;17.79;50.14
60319;BME280;46163;52.306;5.634;2023-04-15T08:33:56;101237.66;;;17.78;50.21
60319;BME280;46163;52.306;5.634;2023-04-15T08:36:21;101238.03;;;17.82;50.31
60319;BME280;46163;52.306;5.634;2023-04-15T08:38:47;101236.16;;;17.82;50.28
60319;BME280;46163;52.306;5.634;2023-04-15T08:41:25;101245.88;;;17.83;49.92
60319;BME280;46163;52.306;5.634;2023-04-15T08:43:56;101247.75;;;17.83;50.29
60319;BME280;46163;52.306;5.634;2023-04-15T08:46:22;101247.50;;;17.84;50.08
60319;BME280;46163;52.306;5.634;2023-04-15T08:48:48;101258.84;;;17.86;50.37
60319;BME280;46163;52.306;5.634;2023-04-15T08:51:15;101257.44;;;17.84;50.44
60319;BME280;46163;52.306;5.634;2023-04-15T08:53:44;101262.59;;;17.85;50.28
60319;BME280;46163;52.306;5.634;2023-04-15T08:56:13;101261.28;;;17.88;50.30
60319;BME280;46163;52.306;5.634;2023-04-15T08:58:39;101268.31;;;17.89;50.32
60319;BME280;46163;52.306;5.634;2023-04-15T09:01:05;101268.09;;;17.90;50.25
60319;BME280;46163;52.306;5.634;2023-04-15T09:03:31;101269.72;;;17.91;50.19
60319;BME280;46163;52.306;5.634;2023-04-15T09:05:58;101269.13;;;17.89;50.15
60319;BME280;46163;52.306;5.634;2023-04-15T09:08:23;101284.81;;;17.92;49.59
60319;BME280;46163;52.306;5.634;2023-04-15T09:10:49;101270.19;;;17.88;49.83
60319;BME280;46163;52.306;5.634;2023-04-15T09:13:15;101290.22;;;17.92;49.71
60319;BME280;46163;52.306;5.634;2023-04-15T09:15:43;101287.28;;;17.94;49.66
60319;BME280;46163;52.306;5.634;2023-04-15T09:18:10;101291.59;;;17.95;49.55
60319;BME280;46163;52.306;5.634;2023-04-15T09:20:40;101304.81;;;17.96;49.64
60319;BME280;46163;52.306;5.634;2023-04-15T09:23:12;101299.44;;;17.96;49.64
60319;BME280;46163;52.306;5.634;2023-04-15T09:25:39;101298.38;;;17.97;49.56
60319;BME280;46163;52.306;5.634;2023-04-15T09:28:07;101297.78;;;17.95;49.28
60319;BME280;46163;52.306;5.634;2023-04-15T09:30:33;101300.25;;;17.97;49.40
60319;BME280;46163;52.306;5.634;2023-04-15T09:33:00;101302.72;;;17.98;49.58
60319;BME280;46163;52.306;5.634;2023-04-15T09:35:26;101313.00;;;18.01;49.59
60319;BME280;46163;52.306;5.634;2023-04-15T09:37:53;101313.00;;;18.01;49.32
60319;BME280;46163;52.306;5.634;2023-04-15T09:40:33;101321.09;;;18.01;49.31
60319;BME280;46163;52.306;5.634;2023-04-15T09:42:59;101320.84;;;18.03;49.46
60319;BME280;46163;52.306;5.634;2023-04-15T09:45:27;101320.03;;;18.02;49.66
60319;BME280;46163;52.306;5.634;2023-04-15T09:47:53;101324.47;;;18.08;49.43
60319;BME280;46163;52.306;5.634;2023-04-15T09:50:19;101318.72;;;18.05;49.18
60319;BME280;46163;52.306;5.634;2023-04-15T09:52:45;101322.34;;;18.11;48.95
60319;BME280;46163;52.306;5.634;2023-04-15T09:55:12;101336.75;;;18.16;49.17
60319;BME280;46163;52.306;5.634;2023-04-15T09:57:38;101329.50;;;18.17;48.80
60319;BME280;46163;52.306;5.634;2023-04-15T10:00:07;101331.38;;;18.16;49.13
60319;BME280;46163;52.306;5.634;2023-04-15T10:02:34;101335.19;;;18.20;48.86
60319;BME280;46163;52.306;5.634;2023-04-15T10:05:01;101332.25;;;18.22;49.02
60319;BME280;46163;52.306;5.634;2023-04-15T10:07:27;101334.50;;;18.25;49.24
60319;BME280;46163;52.306;5.634;2023-04-15T10:09:53;101329.94;;;18.25;49.78
60319;BME280;46163;52.306;5.634;2023-04-15T10:12:19;101340.47;;;18.27;49.76
60319;BME280;46163;52.306;5.634;2023-04-15T10:14:52;101346.53;;;18.34;50.00
60319;BME280;46163;52.306;5.634;2023-04-15T10:17:21;101346.88;;;18.38;50.10
60319;BME280;46163;52.306;5.634;2023-04-15T10:19:48;101346.63;;;18.39;50.07
60319;BME280;46163;52.306;5.634;2023-04-15T10:22:14;101341.78;;;18.41;50.03
60319;BME280;46163;52.306;5.634;2023-04-15T10:24:39;101344.03;;;18.44;49.90
60319;BME280;46163;52.306;5.634;2023-04-15T10:27:05;101342.41;;;18.43;50.02
60319;BME280;46163;52.306;5.634;2023-04-15T10:29:32;101342.47;;;18.48;49.93
60319;BME280;46163;52.306;5.634;2023-04-15T10:31:58;101334.69;;;18.35;50.13
60319;BME280;46163;52.306;5.634;2023-04-15T10:34:26;101357.13;;;18.52;49.92
60319;BME280;46163;52.306;5.634;2023-04-15T10:36:55;101355.56;;;18.56;50.05
60319;BME280;46163;52.306;5.634;2023-04-15T10:39:42;101356.50;;;18.62;50.01
60319;BME280;46163;52.306;5.634;2023-04-15T10:42:13;101356.84;;;18.66;49.94
60319;BME280;46163;52.306;5.634;2023-04-15T10:44:56;101352.50;;;18.64;49.90
60319;BME280;46163;52.306;5.634;2023-04-15T10:47:21;101354.97;;;18.66;49.70
60319;BME280;46163;52.306;5.634;2023-04-15T10:49:51;101353.75;;;18.74;49.98
60319;BME280;46163;52.306;5.634;2023-04-15T10:52:22;101359.16;;;18.74;50.36
60319;BME280;46163;52.306;5.634;2023-04-15T10:54:48;101369.94;;;18.74;50.20
60319;BME280;46163;52.306;5.634;2023-04-15T10:57:21;101367.00;;;18.75;50.13
60319;BME280;46163;52.306;5.634;2023-04-15T11:00:15;101380.25;;;18.77;50.25
60319;BME280;46163;52.306;5.634;2023-04-15T11:02:48;101383.53;;;18.79;50.47
60319;BME280;46163;52.306;5.634;2023-04-15T11:05:17;101385.66;;;18.77;50.11
60319;BME280;46163;52.306;5.634;2023-04-15T11:12:56;101376.50;;;18.78;49.73
60319;BME280;46163;52.306;5.634;2023-04-15T11:18:09;101394.19;;;18.85;49.32
60319;BME280;46163;52.306;5.634;2023-04-15T11:20:36;101387.47;;;18.88;49.55
60319;BME280;46163;52.306;5.634;2023-04-15T11:23:03;101388.03;;;18.90;49.57
60319;BME280;46163;52.306;5.634;2023-04-15T11:25:34;101385.03;;;18.86;49.49
60319;BME280;46163;52.306;5.634;2023-04-15T11:28:00;101385.72;;;18.82;49.01
60319;BME280;46163;52.306;5.634;2023-04-15T11:30:31;101393.13;;;18.86;49.30
60319;BME280;46163;52.306;5.634;2023-04-15T11:33:03;101401.19;;;18.86;49.25
60319;BME280;46163;52.306;5.634;2023-04-15T11:35:29;101398.72;;;18.85;49.18
60319;BME280;46163;52.306;5.634;2023-04-15T11:37:55;101404.13;;;18.85;48.86
60319;BME280;46163;52.306;5.634;2023-04-15T11:40:26;101403.91;;;18.86;49.00
60319;BME280;46163;52.306;5.634;2023-04-15T11:45:35;101418.78;;;18.89;48.79
60319;BME280;46163;52.306;5.634;2023-04-15T11:48:08;101419.00;;;18.87;48.88
60319;BME280;46163;52.306;5.634;2023-04-15T11:50:35;101426.88;;;18.89;48.99
60319;BME280;46163;52.306;5.634;2023-04-15T11:53:04;101429.56;;;18.89;48.87
60319;BME280;46163;52.306;5.634;2023-04-15T11:55:50;101421.34;;;18.84;48.98
60319;BME280;46163;52.306;5.634;2023-04-15T11:58:21;101425.69;;;18.85;49.09
60319;BME280;46163;52.306;5.634;2023-04-15T12:00:59;101429.00;;;18.87;49.00
60319;BME280;46163;52.306;5.634;2023-04-15T12:03:35;101424.06;;;18.84;48.98
60319;BME280;46163;52.306;5.634;2023-04-15T12:11:13;101426.53;;;18.85;48.92
60319;BME280;46163;52.306;5.634;2023-04-15T12:13:48;101432.97;;;18.84;48.73
60319;BME280;46163;52.306;5.634;2023-04-15T12:16:18;101427.00;;;18.82;49.05
60319;BME280;46163;52.306;5.634;2023-04-15T12:18:45;101425.84;;;18.78;49.02
60319;BME280;46163;52.306;5.634;2023-04-15T12:21:11;101447.75;;;18.82;49.03
60319;BME280;46163;52.306;5.634;2023-04-15T12:23:39;101441.53;;;18.81;49.03
60319;BME280;46163;52.306;5.634;2023-04-15T12:26:05;101434.41;;;18.75;48.78
60319;BME280;46163;52.306;5.634;2023-04-15T12:28:34;101440.97;;;18.79;48.88
60319;BME280;46163;52.306;5.634;2023-04-15T12:31:06;101462.31;;;18.81;48.92
60319;BME280;46163;52.306;5.634;2023-04-15T12:33:33;101463.59;;;18.78;48.83
60319;BME280;46163;52.306;5.634;2023-04-15T12:35:59;101468.19;;;18.78;48.90
60319;BME280;46163;52.306;5.634;2023-04-15T12:38:24;101463.25;;;18.75;48.72
60319;BME280;46163;52.306;5.634;2023-04-15T12:40:50;101469.47;;;18.75;48.75
60319;BME280;46163;52.306;5.634;2023-04-15T12:43:16;101480.50;;;18.74;48.62
60319;BME280;46163;52.306;5.634;2023-04-15T12:45:41;101473.47;;;18.73;48.83
60319;BME280;46163;52.306;5.634;2023-04-15T12:48:07;101481.22;;;18.69;48.95
60319;BME280;46163;52.306;5.634;2023-04-15T12:50:34;101483.69;;;18.71;49.04
60319;BME280;46163;52.306;5.634;2023-04-15T12:53:00;101484.97;;;18.68;48.84
60319;BME280;46163;52.306;5.634;2023-04-15T12:55:25;101479.59;;;18.68;48.72
60319;BME280;46163;52.306;5.634;2023-04-15T12:57:51;101486.63;;;18.69;48.94
60319;BME280;46163;52.306;5.634;2023-04-15T13:00:17;101498.22;;;18.70;48.62
60319;BME280;46163;52.306;5.634;2023-04-15T13:02:44;101511.94;;;18.68;48.95
60319;BME280;46163;52.306;5.634;2023-04-15T13:05:09;101499.13;;;18.63;48.77
60319;BME280;46163;52.306;5.634;2023-04-15T13:07:35;101499.50;;;18.67;48.83